createdAt,value
2019-05-09T00:01:48.470Z,99550.11
2019-05-09T00:04:19.445Z,99549.45
2019-05-09T00:06:49.157Z,99557.23
2019-05-09T00:09:20.488Z,99551.50
2019-05-09T00:11:50.090Z,99559.47
2019-05-09T00:14:23.776Z,99561.52
2019-05-09T00:16:54.549Z,99557.42
2019-05-09T00:19:25.982Z,99555.27
2019-05-09T00:21:55.811Z,99561.66
2019-05-09T00:24:26.339Z,99562.77
2019-05-09T00:26:56.826Z,99565.67
2019-05-09T00:29:35.549Z,99563.71
2019-05-09T00:32:20.865Z,99572.45
2019-05-09T00:35:14.149Z,99572.45
2019-05-09T00:38:04.318Z,99571.42
2019-05-09T00:40:35.976Z,99571.05
2019-05-09T00:43:05.512Z,99570.09
2019-05-09T00:45:55.123Z,99573.19
2019-05-09T00:48:28.934Z,99574.52
2019-05-09T00:50:58.528Z,99577.62
2019-05-09T00:53:30.638Z,99572.62
2019-05-09T00:56:00.118Z,99573.63
2019-05-09T00:58:33.360Z,99577.75
2019-05-09T01:01:04.408Z,99573.86
2019-05-09T01:03:34.238Z,99578.98
2019-05-09T01:06:04.571Z,99576.19
2019-05-09T01:08:35.279Z,99575.56
2019-05-09T01:11:11.762Z,99582.52
2019-05-09T01:13:38.672Z,99579.08
2019-05-09T01:16:08.273Z,99582.60
2019-05-09T01:18:38.741Z,99581.47
2019-05-09T01:21:08.195Z,99581.03
2019-05-09T01:23:39.246Z,99580.41
2019-05-09T01:26:09.900Z,99578.86
2019-05-09T01:28:39.286Z,99581.42
2019-05-09T01:31:10.407Z,99586.83
2019-05-09T01:34:03.991Z,99582.15
2019-05-09T01:36:53.898Z,99584.82
2019-05-09T01:39:24.164Z,99581.73
2019-05-09T01:41:55.638Z,99574.75
2019-05-09T01:44:26.238Z,99578.00
2019-05-09T01:46:55.823Z,99579.05
2019-05-09T01:49:26.229Z,99580.39
2019-05-09T01:51:55.903Z,99574.27
2019-05-09T01:54:27.894Z,99570.94
2019-05-09T01:56:58.702Z,99572.17
2019-05-09T01:59:28.141Z,99572.22
2019-05-09T02:01:57.609Z,99569.80
2019-05-09T02:04:26.971Z,99565.73
2019-05-09T02:06:56.411Z,99572.98
2019-05-09T02:09:26.475Z,99575.91
2019-05-09T02:11:56.023Z,99569.50
2019-05-09T02:14:34.973Z,99571.09
2019-05-09T02:17:23.875Z,99570.45
2019-05-09T02:19:53.446Z,99568.59
2019-05-09T02:22:34.529Z,99568.59
2019-05-09T02:25:05.951Z,99566.91
2019-05-09T02:27:35.414Z,99568.87
2019-05-09T02:30:07.315Z,99572.58
2019-05-09T02:32:37.332Z,99576.20
2019-05-09T02:35:07.730Z,99573.33
2019-05-09T02:37:38.881Z,99576.86
2019-05-09T02:40:10.563Z,99571.80
2019-05-09T02:42:40.430Z,99577.75
2019-05-09T02:45:11.534Z,99577.75
2019-05-09T02:47:42.430Z,99578.74
2019-05-09T02:50:13.392Z,99583.09
2019-05-09T02:52:44.711Z,99578.50
2019-05-09T02:55:14.654Z,99584.33
2019-05-09T02:57:48.955Z,99581.66
2019-05-09T03:00:39.690Z,99582.23
2019-05-09T03:03:20.993Z,99582.99
2019-05-09T03:05:50.933Z,99583.27
2019-05-09T03:08:21.475Z,99580.59
2019-05-09T03:10:52.647Z,99582.06
2019-05-09T03:13:22.183Z,99581.07
2019-05-09T03:15:53.601Z,99578.27
2019-05-09T03:18:23.007Z,99580.11
2019-05-09T03:21:30.176Z,99569.30
2019-05-09T03:24:02.235Z,99569.30
2019-05-09T03:26:38.454Z,99575.97
2019-05-09T03:29:41.751Z,99575.84
2019-05-09T03:32:11.509Z,99577.55
2019-05-09T03:34:42.731Z,99575.97
2019-05-09T03:37:13.670Z,99582.52
2019-05-09T03:39:43.478Z,99584.42
2019-05-09T03:42:13.092Z,99589.91
2019-05-09T03:44:43.631Z,99589.19
2019-05-09T03:47:37.656Z,99586.17
2019-05-09T03:50:18.574Z,99591.99
2019-05-09T03:52:48.144Z,99596.20
2019-05-09T03:55:22.263Z,99596.92
2019-05-09T03:57:59.617Z,99598.64
2019-05-09T04:00:29.102Z,99603.94
2019-05-09T04:02:58.603Z,99603.70
2019-05-09T04:05:29.997Z,99606.11
2019-05-09T04:08:20.226Z,99612.16
2019-05-09T04:10:51.372Z,99611.92
2019-05-09T04:13:24.667Z,99615.69
2019-05-09T04:15:55.317Z,99613.13
2019-05-09T04:18:27.584Z,99607.20
2019-05-09T04:20:59.652Z,99609.49
2019-05-09T04:23:29.173Z,99616.69
2019-05-09T04:26:14.110Z,99617.02
2019-05-09T04:28:47.134Z,99615.08
2019-05-09T04:31:17.831Z,99620.38
2019-05-09T04:33:48.675Z,99617.06
2019-05-09T04:36:22.394Z,99618.89
2019-05-09T04:38:54.416Z,99619.71
2019-05-09T04:41:25.384Z,99619.63
2019-05-09T04:43:57.483Z,99615.95
2019-05-09T04:46:27.782Z,99618.74
2019-05-09T04:49:02.726Z,99623.61
2019-05-09T04:51:32.442Z,99616.81
2019-05-09T04:54:01.908Z,99623.05
2019-05-09T04:56:38.107Z,99627.26
2019-05-09T04:59:09.212Z,99626.31
2019-05-09T05:01:58.662Z,99639.91
2019-05-09T05:04:30.702Z,99643.16
2019-05-09T05:07:01.934Z,99642.36
2019-05-09T05:09:32.395Z,99638.13
2019-05-09T05:12:02.072Z,99639.95
2019-05-09T05:14:33.830Z,99640.58
2019-05-09T05:17:10.607Z,99639.95
2019-05-09T05:19:38.317Z,99645.88
2019-05-09T05:22:18.261Z,99648.81
2019-05-09T05:24:59.193Z,99652.28
2019-05-09T05:27:28.252Z,99658.46
2019-05-09T05:29:59.337Z,99657.16
2019-05-09T05:33:01.190Z,99656.58
2019-05-09T05:35:42.143Z,99658.17
2019-05-09T05:38:14.158Z,99660.35
2019-05-09T05:40:47.619Z,99655.37
2019-05-09T05:43:18.185Z,99662.28
2019-05-09T05:46:04.755Z,99667.69
2019-05-09T05:48:35.127Z,99664.67
2019-05-09T05:51:04.570Z,99664.59
2019-05-09T05:53:35.229Z,99669.32
2019-05-09T05:56:08.498Z,99668.69
2019-05-09T05:58:40.243Z,99675.97
2019-05-09T06:01:09.794Z,99681.87
2019-05-09T06:03:39.396Z,99681.33
2019-05-09T06:06:09.081Z,99690.48
2019-05-09T06:08:40.960Z,99690.91
2019-05-09T06:11:12.239Z,99689.87
2019-05-09T06:13:54.500Z,99693.23
2019-05-09T06:16:19.013Z,99699.44
2019-05-09T06:18:48.791Z,99699.15
2019-05-09T06:21:18.301Z,99696.33
2019-05-09T06:23:50.534Z,99700.02
2019-05-09T06:26:20.063Z,99698.79
2019-05-09T06:28:51.369Z,99695.70
2019-05-09T06:31:22.747Z,99697.34
2019-05-09T06:33:54.215Z,99697.38
2019-05-09T06:36:23.820Z,99701.37
2019-05-09T06:38:53.309Z,99702.52
2019-05-09T06:41:22.869Z,99703.56
2019-05-09T06:44:13.228Z,99709.19
2019-05-09T06:46:38.989Z,99706.95
2019-05-09T06:49:24.203Z,99711.72
2019-05-09T06:51:43.727Z,99713.58
2019-05-09T06:54:14.309Z,99717.68
2019-05-09T06:56:43.778Z,99721.55
2019-05-09T06:59:14.992Z,99723.19
2019-05-09T07:01:51.799Z,99725.91
2019-05-09T07:04:30.232Z,99726.47
2019-05-09T07:07:08.001Z,99732.31
2019-05-09T07:09:51.246Z,99734.73
2019-05-09T07:12:20.770Z,99740.02
2019-05-09T07:14:50.363Z,99744.53
2019-05-09T07:17:21.624Z,99744.59
2019-05-09T07:19:52.250Z,99742.77
2019-05-09T07:22:38.832Z,99744.82
2019-05-09T07:25:32.004Z,99744.34
2019-05-09T07:28:03.254Z,99747.16
2019-05-09T07:30:49.606Z,99750.40
2019-05-09T07:33:27.967Z,99748.64
2019-05-09T07:35:58.183Z,99756.84
2019-05-09T07:38:31.994Z,99754.50
2019-05-09T07:41:02.669Z,99759.80
2019-05-09T07:43:35.101Z,99761.39
2019-05-09T07:46:08.960Z,99762.41
2019-05-09T07:48:41.890Z,99756.97
2019-05-09T07:51:12.769Z,99764.44
2019-05-09T07:53:42.187Z,99762.22
2019-05-09T07:56:15.158Z,99768.00
2019-05-09T07:58:45.157Z,99765.33
2019-05-09T08:01:14.640Z,99768.62
2019-05-09T08:03:44.044Z,99767.60
2019-05-09T08:06:15.059Z,99766.08
2019-05-09T08:08:47.667Z,99761.95
2019-05-09T08:11:19.112Z,99754.70
2019-05-09T08:13:50.281Z,99759.20
2019-05-09T08:16:20.847Z,99754.97
2019-05-09T08:18:50.827Z,99762.11
2019-05-09T08:21:20.466Z,99758.72
2019-05-09T08:23:50.009Z,99767.29
2019-05-09T08:26:20.699Z,99771.01
2019-05-09T08:28:50.490Z,99769.41
2019-05-09T08:31:21.507Z,99777.09
2019-05-09T08:33:51.060Z,99777.25
2019-05-09T08:36:20.894Z,99777.48
2019-05-09T08:38:52.710Z,99779.69
2019-05-09T08:41:22.167Z,99781.19
2019-05-09T08:43:53.597Z,99774.41
2019-05-09T08:46:28.600Z,99781.30
2019-05-09T08:48:58.039Z,99783.34
2019-05-09T08:51:36.722Z,99777.80
2019-05-09T08:54:06.160Z,99784.27
2019-05-09T08:56:38.766Z,99790.89
2019-05-09T08:59:12.062Z,99790.11
2019-05-09T09:02:10.025Z,99788.72
2019-05-09T09:04:15.821Z,99788.70
2019-05-09T09:06:48.296Z,99791.85
2019-05-09T09:09:18.077Z,99798.96
2019-05-09T09:11:49.507Z,99786.81
2019-05-09T09:14:19.040Z,99791.14
2019-05-09T09:16:48.629Z,99791.26
2019-05-09T09:19:19.143Z,99788.44
2019-05-09T09:21:49.724Z,99789.98
2019-05-09T09:24:20.649Z,99787.09
2019-05-09T09:26:51.834Z,99787.20
2019-05-09T09:29:24.168Z,99793.67
2019-05-09T09:31:57.684Z,99788.11
2019-05-09T09:34:30.063Z,99791.75
2019-05-09T09:37:05.444Z,99786.45
2019-05-09T09:39:33.123Z,99785.97
2019-05-09T09:42:05.217Z,99780.03
2019-05-09T09:44:38.784Z,99778.59
2019-05-09T09:47:11.691Z,99786.97
2019-05-09T09:49:44.358Z,99794.89
2019-05-09T09:52:14.961Z,99806.10
2019-05-09T09:54:48.080Z,99803.67
2019-05-09T09:57:19.098Z,99806.24
2019-05-09T09:59:55.006Z,99811.17
2019-05-09T10:02:29.205Z,99806.94
2019-05-09T10:04:59.132Z,99806.28
2019-05-09T10:07:28.771Z,99802.72
2019-05-09T10:09:58.591Z,99812.17
2019-05-09T10:12:30.176Z,99803.58
2019-05-09T10:15:20.668Z,99805.05
2019-05-09T10:17:58.251Z,99802.69
2019-05-09T10:20:44.764Z,99799.70
2019-05-09T10:23:18.863Z,99796.48
2019-05-09T10:25:45.835Z,99798.19
2019-05-09T10:28:21.497Z,99795.06
2019-05-09T10:30:51.076Z,99799.99
2019-05-09T10:33:23.588Z,99802.00
2019-05-09T10:35:54.165Z,99796.50
2019-05-09T10:38:27.995Z,99801.04
2019-05-09T10:41:01.257Z,99796.16
2019-05-09T10:43:52.248Z,99793.63
2019-05-09T10:46:52.651Z,99797.97
2019-05-09T10:49:16.115Z,99798.45
2019-05-09T10:51:45.619Z,99800.11
2019-05-09T10:54:18.577Z,99803.42
2019-05-09T10:56:48.929Z,99805.72
2019-05-09T10:59:18.598Z,99800.20
2019-05-09T11:01:49.731Z,99800.52
2019-05-09T11:04:20.736Z,99792.95
2019-05-09T11:06:50.426Z,99785.16
2019-05-09T11:09:20.986Z,99793.39
2019-05-09T11:11:51.832Z,99793.88
2019-05-09T11:14:36.191Z,99793.04
2019-05-09T11:17:07.972Z,99790.81
2019-05-09T11:19:29.451Z,99785.05
2019-05-09T11:22:00.172Z,99790.02
2019-05-09T11:24:41.834Z,99785.30
2019-05-09T11:27:01.444Z,99793.09
2019-05-09T11:29:31.870Z,99790.39
2019-05-09T11:32:03.441Z,99792.77
2019-05-09T11:34:32.970Z,99795.61
2019-05-09T11:37:02.576Z,99796.32
2019-05-09T11:39:39.012Z,99799.52
2019-05-09T11:42:04.660Z,99794.30
2019-05-09T11:44:38.396Z,99794.61
2019-05-09T11:47:26.819Z,99795.80
2019-05-09T11:49:39.249Z,99798.33
2019-05-09T11:52:09.856Z,99793.80
2019-05-09T11:54:39.580Z,99799.70
2019-05-09T11:57:09.114Z,99804.52
2019-05-09T11:59:41.089Z,99797.22
2019-05-09T12:02:11.283Z,99797.28
2019-05-09T12:04:42.620Z,99788.36
2019-05-09T12:07:13.145Z,99789.89
2019-05-09T12:09:42.755Z,99793.41
2019-05-09T12:12:13.224Z,99791.38
2019-05-09T12:14:44.124Z,99785.16
2019-05-09T12:17:14.034Z,99784.62
2019-05-09T12:19:43.503Z,99794.06
2019-05-09T12:22:13.430Z,99786.77
2019-05-09T12:24:44.943Z,99792.77
2019-05-09T12:27:14.511Z,99794.41
2019-05-09T12:29:48.217Z,99797.88
2019-05-09T12:32:18.630Z,99800.20
2019-05-09T12:34:48.593Z,99799.77
2019-05-09T12:37:19.402Z,99800.64
2019-05-09T12:39:49.184Z,99793.77
2019-05-09T12:42:20.705Z,99796.59
2019-05-09T12:44:51.154Z,99788.98
2019-05-09T12:47:21.036Z,99788.77
2019-05-09T12:49:51.664Z,99794.50
2019-05-09T12:52:22.959Z,99792.52
2019-05-09T12:54:58.294Z,99789.64
2019-05-09T12:57:29.710Z,99794.94
2019-05-09T13:00:00.240Z,99791.02
2019-05-09T13:02:29.933Z,99791.86
2019-05-09T13:04:59.362Z,99782.91
2019-05-09T13:07:30.320Z,99798.13
2019-05-09T13:10:00.436Z,99799.84
2019-05-09T13:12:30.919Z,99798.62
2019-05-09T13:15:00.493Z,99799.65
2019-05-09T13:17:38.394Z,99782.22
2019-05-09T13:20:08.921Z,99793.39
2019-05-09T13:22:38.431Z,99795.48
2019-05-09T13:25:10.291Z,99790.05
2019-05-09T13:27:41.453Z,99790.05
2019-05-09T13:30:11.574Z,99792.06
2019-05-09T13:32:41.503Z,99794.87
2019-05-09T13:35:11.187Z,99793.61
2019-05-09T13:37:40.902Z,99796.39
2019-05-09T13:40:10.493Z,99790.95
2019-05-09T13:42:42.791Z,99790.50
2019-05-09T13:45:14.126Z,99795.68
2019-05-09T13:47:48.490Z,99797.42
2019-05-09T13:50:18.797Z,99799.33
2019-05-09T13:52:50.029Z,99792.97
2019-05-09T13:55:19.634Z,99805.02
2019-05-09T13:57:50.100Z,99805.05
2019-05-09T14:00:20.716Z,99806.23
2019-05-09T14:02:50.627Z,99806.87
2019-05-09T14:05:20.133Z,99807.20
2019-05-09T14:07:54.318Z,99805.80
2019-05-09T14:10:20.844Z,99809.66
2019-05-09T14:13:05.668Z,99815.38
2019-05-09T14:15:22.569Z,99814.38
2019-05-09T14:17:54.136Z,99819.31
2019-05-09T14:20:24.804Z,99820.67
2019-05-09T14:22:54.353Z,99818.20
2019-05-09T14:25:28.931Z,99820.74
2019-05-09T14:27:58.821Z,99814.66
2019-05-09T14:30:28.686Z,99820.38
2019-05-09T14:33:00.330Z,99825.78
2019-05-09T14:35:33.176Z,99821.89
2019-05-09T14:38:02.884Z,99820.86
2019-05-09T14:40:33.520Z,99821.52
2019-05-09T14:43:03.025Z,99819.81
2019-05-09T14:45:32.566Z,99815.94
2019-05-09T14:48:01.931Z,99814.66
2019-05-09T14:50:32.358Z,99821.95
2019-05-09T14:53:01.977Z,99811.83
2019-05-09T14:55:31.381Z,99817.09
2019-05-09T14:58:00.769Z,99817.41
2019-05-09T15:00:30.202Z,99814.20
2019-05-09T15:03:00.669Z,99814.89
2019-05-09T15:05:30.002Z,99813.53
2019-05-09T15:07:59.527Z,99820.28
2019-05-09T15:10:30.581Z,99819.25
2019-05-09T15:13:01.158Z,99813.67
2019-05-09T15:15:32.722Z,99812.14
2019-05-09T15:18:03.423Z,99818.75
2019-05-09T15:20:34.027Z,99817.05
2019-05-09T15:23:03.652Z,99820.91
2019-05-09T15:25:33.139Z,99819.86
2019-05-09T15:28:07.981Z,99816.48
2019-05-09T15:30:38.506Z,99824.55
2019-05-09T15:33:10.066Z,99818.33
2019-05-09T15:35:39.752Z,99825.09
2019-05-09T15:38:10.314Z,99827.79
2019-05-09T15:40:40.115Z,99827.42
2019-05-09T15:43:11.296Z,99825.23
2019-05-09T15:46:03.006Z,99825.78
2019-05-09T15:48:32.526Z,99829.66
2019-05-09T15:51:03.993Z,99836.28
2019-05-09T15:53:33.593Z,99831.42
2019-05-09T15:56:03.066Z,99828.72
2019-05-09T15:58:32.622Z,99841.23
2019-05-09T16:01:08.135Z,99844.42
2019-05-09T16:03:38.376Z,99843.08
2019-05-09T16:06:09.005Z,99838.34
2019-05-09T16:08:39.727Z,99842.54
2019-05-09T16:11:09.145Z,99842.52
2019-05-09T16:13:38.658Z,99847.91
2019-05-09T16:16:09.029Z,99848.79
2019-05-09T16:18:42.924Z,99848.12
2019-05-09T16:21:14.035Z,99848.24
2019-05-09T16:23:43.545Z,99843.86
2019-05-09T16:26:14.033Z,99849.60
2019-05-09T16:28:45.305Z,99847.73
2019-05-09T16:31:14.837Z,99860.17
2019-05-09T16:33:44.674Z,99855.05
2019-05-09T16:36:17.617Z,99854.77
2019-05-09T16:38:49.075Z,99852.45
2019-05-09T16:41:20.892Z,99849.64
2019-05-09T16:43:52.637Z,99853.36
2019-05-09T16:46:23.238Z,99852.49
2019-05-09T16:48:52.708Z,99851.31
2019-05-09T16:51:23.270Z,99855.45
2019-05-09T16:53:54.511Z,99852.92
2019-05-09T16:56:25.598Z,99864.37
2019-05-09T16:58:57.677Z,99856.78
2019-05-09T17:01:28.434Z,99858.30
2019-05-09T17:03:58.153Z,99858.01
2019-05-09T17:06:28.181Z,99860.54
2019-05-09T17:09:00.066Z,99858.68
2019-05-09T17:11:29.822Z,99856.48
2019-05-09T17:14:00.366Z,99854.42
2019-05-09T17:16:31.446Z,99856.08
2019-05-09T17:19:01.141Z,99857.76
2019-05-09T17:21:49.689Z,99858.04
2019-05-09T17:24:21.972Z,99859.82
2019-05-09T17:26:51.604Z,99866.53
2019-05-09T17:29:22.666Z,99862.33
2019-05-09T17:31:54.752Z,99857.36
2019-05-09T17:34:24.228Z,99864.89
2019-05-09T17:36:54.443Z,99868.11
2019-05-09T17:39:24.268Z,99866.23
2019-05-09T17:41:55.207Z,99871.42
2019-05-09T17:44:28.015Z,99867.88
2019-05-09T17:46:58.419Z,99867.48
2019-05-09T17:49:28.173Z,99874.66
2019-05-09T17:51:58.859Z,99875.52
2019-05-09T17:54:28.900Z,99877.20
2019-05-09T17:56:58.525Z,99880.05
2019-05-09T17:59:29.529Z,99880.33
2019-05-09T18:02:02.110Z,99886.33
2019-05-09T18:04:31.646Z,99896.39
2019-05-09T18:07:04.285Z,99896.88
2019-05-09T18:09:33.938Z,99899.36
2019-05-09T18:12:03.427Z,99902.75
2019-05-09T18:14:35.449Z,99905.39
2019-05-09T18:17:05.315Z,99904.48
2019-05-09T18:19:34.775Z,99916.98
2019-05-09T18:22:07.643Z,99917.66
2019-05-09T18:24:38.192Z,99921.33
2019-05-09T18:27:09.284Z,99927.67
2019-05-09T18:29:39.732Z,99925.78
2019-05-09T18:32:40.068Z,99927.28
2019-05-09T18:35:20.957Z,99929.06
2019-05-09T18:37:52.412Z,99930.56
2019-05-09T18:40:22.681Z,99928.86
2019-05-09T18:42:55.058Z,99921.64
2019-05-09T18:45:28.333Z,99931.31
2019-05-09T18:47:58.673Z,99930.46
2019-05-09T18:50:28.490Z,99933.85
2019-05-09T18:52:58.424Z,99937.23
2019-05-09T18:55:29.667Z,99932.73
2019-05-09T18:58:00.284Z,99937.94
2019-05-09T19:00:31.347Z,99938.06
2019-05-09T19:03:00.841Z,99940.75
2019-05-09T19:05:32.242Z,99948.83
2019-05-09T19:08:02.032Z,99945.86
2019-05-09T19:10:31.728Z,99953.45
2019-05-09T19:13:03.696Z,99959.89
2019-05-09T19:15:58.226Z,99963.98
2019-05-09T19:19:00.099Z,99971.45
2019-05-09T19:21:41.789Z,99964.63
2019-05-09T19:24:11.320Z,99964.78
2019-05-09T19:26:40.930Z,99970.66
2019-05-09T19:29:13.499Z,99972.75
2019-05-09T19:31:44.690Z,99975.48
2019-05-09T19:34:14.079Z,99977.38
2019-05-09T19:36:43.532Z,99978.08
2019-05-09T19:39:13.500Z,99971.69
2019-05-09T19:42:16.073Z,99977.17
2019-05-09T19:44:45.481Z,99971.79
2019-05-09T19:47:14.852Z,99976.45
2019-05-09T19:49:44.562Z,99973.39
2019-05-09T19:52:13.963Z,99978.59
2019-05-09T19:54:43.378Z,99977.91
2019-05-09T19:57:14.030Z,99981.22
2019-05-09T19:59:44.712Z,99984.55
2019-05-09T20:02:14.161Z,99986.57
2019-05-09T20:04:43.668Z,99982.99
2019-05-09T20:07:17.065Z,99990.07
2019-05-09T20:09:51.963Z,99983.59
2019-05-09T20:12:37.000Z,99988.72
2019-05-09T20:15:08.245Z,99989.30
2019-05-09T20:17:38.956Z,99992.20
2019-05-09T20:20:10.916Z,100001.77
2019-05-09T20:22:52.428Z,100007.77
2019-05-09T20:25:14.319Z,100012.30
2019-05-09T20:27:45.592Z,100007.57
2019-05-09T20:30:15.506Z,100012.79
2019-05-09T20:32:45.006Z,100008.98
2019-05-09T20:35:14.531Z,100010.27
2019-05-09T20:37:44.318Z,100016.27
2019-05-09T20:40:16.103Z,100018.08
2019-05-09T20:42:45.822Z,100014.31
2019-05-09T20:45:15.877Z,100018.59
2019-05-09T20:47:46.739Z,100023.41
2019-05-09T20:50:44.782Z,100019.90
2019-05-09T20:53:14.318Z,100027.66
2019-05-09T20:55:46.381Z,100027.43
2019-05-09T20:58:17.988Z,100029.41
2019-05-09T21:00:47.719Z,100029.48
2019-05-09T21:03:17.507Z,100033.88
2019-05-09T21:05:47.328Z,100028.34
2019-05-09T21:08:17.096Z,100035.27
2019-05-09T21:10:47.864Z,100041.55
2019-05-09T21:13:20.547Z,100040.58
2019-05-09T21:15:51.246Z,100040.58
2019-05-09T21:18:20.958Z,100041.25
2019-05-09T21:20:52.048Z,100045.43
2019-05-09T21:23:25.067Z,100044.31
2019-05-09T21:25:54.865Z,100041.14
2019-05-09T21:28:25.599Z,100045.66
2019-05-09T21:30:55.263Z,100045.99
2019-05-09T21:33:24.973Z,100046.85
2019-05-09T21:35:54.813Z,100054.05
2019-05-09T21:38:24.335Z,100047.34
2019-05-09T21:40:53.837Z,100054.83
2019-05-09T21:43:23.718Z,100049.75
2019-05-09T21:45:53.141Z,100052.35
2019-05-09T21:48:22.564Z,100056.75
2019-05-09T21:50:53.149Z,100052.98
2019-05-09T21:53:22.707Z,100058.47
2019-05-09T21:55:52.224Z,100067.37
2019-05-09T21:58:21.831Z,100070.80
2019-05-09T22:00:55.020Z,100075.31
2019-05-09T22:03:24.722Z,100071.52
2019-05-09T22:05:54.597Z,100073.63
2019-05-09T22:08:25.182Z,100075.43
2019-05-09T22:10:56.447Z,100073.34
2019-05-09T22:13:27.659Z,100070.31
2019-05-09T22:15:57.330Z,100081.41
2019-05-09T22:18:28.146Z,100079.58
2019-05-09T22:20:57.628Z,100083.09
2019-05-09T22:23:27.211Z,100086.77
2019-05-09T22:25:56.666Z,100094.25
2019-05-09T22:28:27.802Z,100090.14
2019-05-09T22:30:57.615Z,100096.85
2019-05-09T22:33:28.117Z,100086.17
2019-05-09T22:35:57.681Z,100085.31
2019-05-09T22:38:27.099Z,100081.48
2019-05-09T22:40:56.489Z,100087.71
2019-05-09T22:43:26.052Z,100083.88
2019-05-09T22:45:56.244Z,100081.97
2019-05-09T22:48:25.819Z,100080.45
2019-05-09T22:50:59.011Z,100087.20
2019-05-09T22:53:29.954Z,100082.12
2019-05-09T22:56:00.760Z,100083.03
2019-05-09T22:58:36.129Z,100081.39
2019-05-09T23:01:06.632Z,100088.28
2019-05-09T23:03:44.818Z,100082.24
2019-05-09T23:06:14.310Z,100087.61
2019-05-09T23:08:45.134Z,100086.88
2019-05-09T23:11:16.881Z,100087.74
2019-05-09T23:13:52.635Z,100091.66
2019-05-09T23:16:29.652Z,100086.34
2019-05-09T23:18:59.526Z,100084.00
2019-05-09T23:21:31.492Z,100082.33
2019-05-09T23:24:27.435Z,100082.91
2019-05-09T23:26:44.333Z,100082.28
2019-05-09T23:29:13.770Z,100087.61
2019-05-09T23:31:54.759Z,100086.61
2019-05-09T23:34:25.611Z,100088.09
2019-05-09T23:39:45.656Z,100085.41
2019-05-09T23:42:15.142Z,100082.24
2019-05-09T23:44:45.669Z,100080.39
2019-05-09T23:47:18.475Z,100086.51
2019-05-09T23:49:49.033Z,100090.49
2019-05-09T23:52:19.775Z,100088.05
2019-05-09T23:55:08.548Z,100087.47
2019-05-09T23:57:55.723Z,100087.02
